Impacts METAR Board
IDs:

KPHL - Philadelphia Intl, PA, US

Updated at: 0100 UTC 24 Jun 2018
Potential Impact None Slight Moderate High
Time 23/13Z 23/14Z 23/15Z 23/16Z 23/17Z 23/18Z 23/19Z 23/20Z 23/21Z 23/22Z 23/23Z 24/00Z 24/01Z
Temp64 64 65 67 67 69 70 70 71 73 71 71 70
Dewpt63 63 63 64 64 65 65 66 67 67 67 67 67
Altim29.86 29.86 29.87 29.85 29.85 29.84 29.82 29.81 29.82 29.80 29.81 29.81 29.82
VIS5 4 4 8 9 8 8 9 9 10 10 10 10
CIG5 5 5 5 6 8 8 8 8 -- 11 17 20
CoverOVCOVCOVCOVCOVCOVCOVCOVCOVCSCTOVCOVCOVC
FltCatIFRIFRIFRIFRIFRIFRIFRIFRIFRVFRMVFRMVFRMVFR
WX-DZ BR-DZ BRBR--------------------
WDir503030204080701007090206090
WSpd7 6 5 6 6 4 3 5 3 5 4 4 6
WGst-- -- -- -- -- -- -- -- -- -- -- -- --
Raw hourly METARs
KPHL 231254Z 05007KT 5SM -DZ BR OVC005 18/17 A2986 RMK AO2 DZB44 SLP112 CIG 004V006 P0000 T01780172
KPHL 231354Z 03006KT 4SM -DZ BR OVC005 18/17 A2986 RMK AO2 SLP112 CIG 004V006 P0000 T01780172
KPHL 231454Z 03005KT 4SM BR OVC005 18/17 A2987 RMK AO2 DZE52 SLP112 P0000 60000 T01830172 51004
KPHL 231601Z 02006KT 8SM OVC005 19/18 A2985 RMK AO2 T01940178
KPHL 231654Z 04006KT 9SM OVC006 19/18 A2985 RMK AO2 RAB31E42 SLP108 P0000 T01940178
KPHL 231754Z 08004KT 8SM OVC008 21/18 A2984 RMK AO2 SLP104 60000 T02060183 10211 20172 56008
KPHL 231854Z 07003KT 8SM OVC008 21/18 A2982 RMK AO2 SLP099 T02110183
KPHL 231954Z 10005KT 9SM OVC008 21/19 A2981 RMK AO2 SLP095 T02110189
KPHL 232054Z 07003KT 9SM OVC008 22/19 A2982 RMK AO2 SLP097 T02170194 55007
KPHL 232154Z 09005KT 10SM SCT011 SCT027 23/19 A2980 RMK AO2 SLP091 T02280194
KPHL 232254Z 02004KT 10SM OVC011 22/19 A2981 RMK AO2 SLP093 T02170194 $
KPHL 232354Z 06004KT 10SM OVC017 22/19 A2981 RMK AO2 SLP095 T02170194 10228 20200 53005 $
KPHL 240054Z 09006KT 10SM SCT010 BKN020 OVC025 21/19 A2982 RMK AO2 CIG 013 W SLP098 T02110194 $



Page loaded:  01:18 UTC  |   06:18 PM Pacific  |   07:18 PM Mountain  |   08:18 PM Central  |   09:18 PM Eastern

 

ADVISORIES

FORECASTS

FORECASTS

OBSERVATIONS

USER TOOLS

ABOUT US